createdAt,value
2018-07-30T00:01:14.815Z,9.17
2018-07-30T00:03:42.882Z,8.80
2018-07-30T00:06:10.919Z,9.13
2018-07-30T00:08:38.974Z,9.93
2018-07-30T00:11:07.021Z,12.10
2018-07-30T00:13:35.434Z,10.40
2018-07-30T00:16:03.529Z,9.90
2018-07-30T00:18:31.597Z,10.37
2018-07-30T00:20:59.701Z,10.23
2018-07-30T00:23:27.764Z,8.93
2018-07-30T00:25:55.852Z,10.33
2018-07-30T00:28:23.928Z,9.90
2018-07-30T00:30:51.996Z,9.50
2018-07-30T00:33:20.070Z,10.20
2018-07-30T00:35:48.137Z,9.90
2018-07-30T00:38:16.246Z,10.10
2018-07-30T00:40:44.341Z,10.10
2018-07-30T00:43:12.412Z,10.30
2018-07-30T00:45:40.458Z,9.97
2018-07-30T00:48:08.613Z,10.73
2018-07-30T00:50:36.840Z,10.27
2018-07-30T00:53:05.110Z,9.87
2018-07-30T00:55:33.156Z,9.53
2018-07-30T00:58:01.256Z,10.90
2018-07-30T01:00:29.288Z,9.80
2018-07-30T01:02:57.364Z,10.30
2018-07-30T01:05:25.444Z,10.00
2018-07-30T01:07:53.504Z,11.07
2018-07-30T01:10:21.576Z,9.83
2018-07-30T01:12:49.628Z,10.10
2018-07-30T01:15:17.743Z,10.43
2018-07-30T01:17:45.799Z,10.90
2018-07-30T01:20:13.878Z,10.00
2018-07-30T01:22:41.921Z,9.93
2018-07-30T01:25:10.000Z,10.33
2018-07-30T01:27:38.072Z,9.47
2018-07-30T01:30:06.393Z,10.60
2018-07-30T01:32:34.445Z,9.57
2018-07-30T01:35:02.511Z,9.70
2018-07-30T01:37:30.576Z,9.97
2018-07-30T01:39:58.656Z,10.53
2018-07-30T01:42:26.734Z,10.20
2018-07-30T01:44:54.813Z,9.67
2018-07-30T01:47:22.863Z,9.10
2018-07-30T01:49:50.930Z,10.07
2018-07-30T01:52:19.344Z,9.90
2018-07-30T01:54:47.406Z,9.50
2018-07-30T01:57:15.473Z,10.03
2018-07-30T01:59:43.525Z,10.57
2018-07-30T02:02:11.612Z,10.53
2018-07-30T02:04:39.656Z,10.60
2018-07-30T02:07:08.127Z,10.00
2018-07-30T02:09:36.399Z,10.10
2018-07-30T02:12:04.633Z,10.37
2018-07-30T02:14:32.700Z,10.00
2018-07-30T02:17:00.762Z,10.83
2018-07-30T02:19:28.847Z,10.90
2018-07-30T02:21:57.300Z,10.67
2018-07-30T02:24:25.383Z,9.60
2018-07-30T02:26:53.412Z,9.90
2018-07-30T02:29:21.556Z,10.40
2018-07-30T02:31:49.648Z,10.13
2018-07-30T02:34:17.706Z,10.83
2018-07-30T02:36:46.092Z,10.43
2018-07-30T02:39:14.709Z,9.90
2018-07-30T02:41:42.868Z,9.70
2018-07-30T02:44:10.937Z,9.90
2018-07-30T02:46:39.437Z,9.90
2018-07-30T02:49:08.045Z,10.60
2018-07-30T02:51:36.456Z,10.20
2018-07-30T02:54:04.736Z,10.50
2018-07-30T02:56:32.813Z,10.73
2018-07-30T02:59:00.861Z,9.60
2018-07-30T03:01:29.136Z,9.60
2018-07-30T03:03:57.193Z,10.67
2018-07-30T03:06:25.268Z,10.00
2018-07-30T03:08:53.400Z,10.47
2018-07-30T03:11:21.816Z,10.57
2018-07-30T03:13:49.865Z,10.17
2018-07-30T03:16:17.973Z,10.10
2018-07-30T03:18:46.045Z,10.20
2018-07-30T03:21:14.237Z,9.73
2018-07-30T03:23:42.284Z,9.77
2018-07-30T03:26:10.340Z,9.57
2018-07-30T03:28:38.465Z,9.87
2018-07-30T03:31:06.677Z,10.13
2018-07-30T03:33:35.092Z,9.77
2018-07-30T03:36:03.168Z,10.13
2018-07-30T03:38:31.585Z,10.50
2018-07-30T03:41:01.300Z,10.30
2018-07-30T03:43:29.411Z,10.13
2018-07-30T03:45:57.488Z,10.93
2018-07-30T03:48:25.600Z,9.90
2018-07-30T03:50:53.677Z,10.10
2018-07-30T03:53:21.953Z,10.30
2018-07-30T03:55:50.042Z,10.77
2018-07-30T03:58:18.112Z,11.40
2018-07-30T04:00:46.557Z,11.37
2018-07-30T04:03:14.624Z,10.43
2018-07-30T04:05:42.738Z,11.50
2018-07-30T04:08:11.056Z,11.07
2018-07-30T04:10:39.267Z,10.23
2018-07-30T04:13:07.384Z,11.23
2018-07-30T04:15:35.468Z,11.20
2018-07-30T04:18:03.542Z,10.40
2018-07-30T04:20:31.752Z,11.33
2018-07-30T04:22:59.801Z,10.37
2018-07-30T04:25:27.891Z,11.00
2018-07-30T04:27:56.150Z,10.03
2018-07-30T04:30:24.604Z,10.90
2018-07-30T04:32:52.669Z,12.00
2018-07-30T04:35:20.805Z,12.17
2018-07-30T04:37:48.878Z,10.53
2018-07-30T04:40:16.976Z,10.10
2018-07-30T04:42:45.171Z,10.13
2018-07-30T04:45:13.216Z,9.83
2018-07-30T04:47:41.396Z,11.13
2018-07-30T04:50:09.639Z,12.57
2018-07-30T04:52:37.869Z,11.37
2018-07-30T04:55:06.040Z,11.50
2018-07-30T04:57:34.108Z,11.40
2018-07-30T05:00:02.202Z,11.30
2018-07-30T05:02:30.266Z,12.07
2018-07-30T05:04:58.353Z,12.90
2018-07-30T05:07:26.525Z,10.50
2018-07-30T05:09:54.600Z,11.23
2018-07-30T05:12:23.404Z,11.80
2018-07-30T05:14:51.496Z,11.30
2018-07-30T05:17:19.911Z,12.50
2018-07-30T05:19:48.012Z,11.20
2018-07-30T05:22:16.105Z,12.23
2018-07-30T05:24:44.241Z,10.27
2018-07-30T05:27:12.328Z,11.00
2018-07-30T05:29:40.381Z,11.40
2018-07-30T05:32:08.532Z,10.67
2018-07-30T05:34:36.631Z,11.00
2018-07-30T05:37:05.025Z,10.93
2018-07-30T05:39:33.131Z,11.17
2018-07-30T05:42:01.269Z,11.00
2018-07-30T05:44:29.372Z,11.63
2018-07-30T05:46:57.432Z,11.43
2018-07-30T05:49:25.514Z,11.37
2018-07-30T05:51:53.575Z,10.53
2018-07-30T05:54:21.727Z,11.10
2018-07-30T05:56:49.925Z,10.50
2018-07-30T05:59:18.136Z,9.97
2018-07-30T06:01:46.194Z,10.47
2018-07-30T06:04:14.280Z,10.17
2018-07-30T06:06:42.841Z,9.83
2018-07-30T06:09:11.582Z,11.37
2018-07-30T06:11:39.864Z,10.27
2018-07-30T06:14:07.971Z,10.40
2018-07-30T06:16:36.588Z,12.30
2018-07-30T06:19:04.676Z,11.10
2018-07-30T06:21:32.752Z,10.90
2018-07-30T06:24:00.858Z,10.30
2018-07-30T06:26:29.098Z,10.60
2018-07-30T06:28:57.369Z,10.00
2018-07-30T06:31:25.430Z,10.07
2018-07-30T06:33:53.518Z,10.13
2018-07-30T06:36:21.817Z,9.63
2018-07-30T06:38:49.899Z,10.37
2018-07-30T06:41:17.948Z,9.53
2018-07-30T06:43:46.004Z,9.57
2018-07-30T06:46:14.153Z,10.93
2018-07-30T06:48:42.224Z,10.27
2018-07-30T06:51:10.328Z,9.90
2018-07-30T06:53:38.388Z,10.23
2018-07-30T06:56:06.513Z,12.87
2018-07-30T06:58:34.569Z,10.63
2018-07-30T07:01:02.652Z,10.67
2018-07-30T07:03:30.709Z,14.10
2018-07-30T07:05:58.808Z,10.43
2018-07-30T07:08:26.980Z,15.23
2018-07-30T07:10:55.152Z,10.37
2018-07-30T07:13:23.709Z,15.47
2018-07-30T07:15:51.772Z,12.80
2018-07-30T07:18:19.936Z,9.67
2018-07-30T07:20:48.090Z,9.30
2018-07-30T07:23:16.317Z,19.20
2018-07-30T07:25:44.433Z,13.93
2018-07-30T07:28:12.516Z,9.10
2018-07-30T07:30:40.577Z,10.43
2018-07-30T07:33:08.655Z,9.07
2018-07-30T07:35:36.722Z,8.13
2018-07-30T07:38:04.824Z,8.70
2018-07-30T07:40:32.927Z,9.17
2018-07-30T07:43:01.337Z,8.47
2018-07-30T07:45:29.480Z,8.03
2018-07-30T07:47:57.548Z,9.10
2018-07-30T07:50:25.768Z,7.37
2018-07-30T07:52:53.925Z,10.17
2018-07-30T07:55:22.005Z,7.60
2018-07-30T07:57:50.129Z,8.67
2018-07-30T08:00:18.269Z,7.40
2018-07-30T08:02:46.702Z,8.10
2018-07-30T08:05:14.781Z,8.00
2018-07-30T08:07:42.873Z,8.03
2018-07-30T08:10:10.909Z,8.70
2018-07-30T08:12:38.984Z,8.30
2018-07-30T08:15:07.715Z,7.70
2018-07-30T08:17:36.137Z,7.50
2018-07-30T08:20:04.805Z,8.33
2018-07-30T08:22:33.188Z,8.17
2018-07-30T08:25:01.230Z,7.90
2018-07-30T08:27:29.314Z,10.00
2018-07-30T08:29:57.921Z,7.60
2018-07-30T08:32:26.344Z,11.13
2018-07-30T08:34:54.445Z,7.67
2018-07-30T08:37:22.529Z,7.87
2018-07-30T08:39:50.608Z,7.97
2018-07-30T08:42:18.705Z,8.03
2018-07-30T08:44:46.952Z,7.83
2018-07-30T08:47:15.706Z,7.40
2018-07-30T08:49:43.790Z,7.40
2018-07-30T08:52:11.963Z,7.27
2018-07-30T08:54:40.043Z,6.90
2018-07-30T08:57:08.121Z,7.80
2018-07-30T08:59:36.221Z,7.47
2018-07-30T09:02:04.636Z,8.43
2018-07-30T09:04:33.096Z,8.17
2018-07-30T09:07:01.180Z,7.70
2018-07-30T09:09:29.272Z,7.03
2018-07-30T09:11:57.340Z,7.53
2018-07-30T09:14:25.533Z,7.60
2018-07-30T09:16:53.616Z,6.37
2018-07-30T09:19:21.708Z,7.40
2018-07-30T09:21:49.780Z,6.63
2018-07-30T09:24:17.869Z,8.23
2018-07-30T09:26:45.986Z,6.93
2018-07-30T09:29:14.225Z,7.87
2018-07-30T09:31:42.340Z,6.77
2018-07-30T09:34:10.405Z,6.57
2018-07-30T09:36:38.464Z,5.90
2018-07-30T09:39:07.787Z,6.37
2018-07-30T09:41:36.086Z,6.67
2018-07-30T09:44:04.116Z,7.17
2018-07-30T09:46:32.201Z,10.13
2018-07-30T09:49:00.292Z,6.47
2018-07-30T09:51:28.359Z,6.47
2018-07-30T09:53:56.445Z,5.80
2018-07-30T09:56:24.713Z,6.17
2018-07-30T09:58:52.791Z,5.33
2018-07-30T10:01:26.228Z,5.97
2018-07-30T10:03:54.288Z,6.93
2018-07-30T10:06:22.484Z,6.63
2018-07-30T10:08:50.610Z,6.13
2018-07-30T10:11:18.760Z,6.23
2018-07-30T10:13:46.832Z,5.67
2018-07-30T10:16:15.037Z,6.20
2018-07-30T10:18:43.345Z,5.27
2018-07-30T10:21:11.617Z,6.07
2018-07-30T10:23:39.866Z,5.90
2018-07-30T10:26:08.090Z,6.60
2018-07-30T10:28:36.185Z,6.33
2018-07-30T10:31:04.357Z,6.03
2018-07-30T10:33:32.432Z,6.03
2018-07-30T10:36:00.584Z,6.10
2018-07-30T10:38:29.221Z,6.70
2018-07-30T10:40:57.533Z,6.10
2018-07-30T10:43:25.700Z,6.10
2018-07-30T10:45:53.771Z,6.00
2018-07-30T10:48:21.873Z,5.67
2018-07-30T10:50:49.937Z,7.67
2018-07-30T10:53:18.048Z,6.00
2018-07-30T10:55:46.121Z,6.77
2018-07-30T10:58:14.387Z,6.27
2018-07-30T11:00:42.507Z,7.60
2018-07-30T11:03:10.644Z,6.60
2018-07-30T11:05:39.033Z,7.00
2018-07-30T11:08:07.305Z,6.60
2018-07-30T11:10:35.416Z,6.73
2018-07-30T11:13:03.557Z,5.77
2018-07-30T11:15:31.665Z,7.00
2018-07-30T11:17:59.862Z,5.80
2018-07-30T11:20:28.015Z,6.17
2018-07-30T11:22:56.088Z,6.50
2018-07-30T11:25:25.203Z,6.87
2018-07-30T11:27:53.490Z,6.90
2018-07-30T11:30:21.852Z,6.67
2018-07-30T11:32:49.966Z,6.83
2018-07-30T11:35:18.475Z,6.50
2018-07-30T11:37:46.650Z,7.20
2018-07-30T11:40:14.708Z,6.77
2018-07-30T11:42:42.824Z,7.03
2018-07-30T11:45:11.021Z,7.07
2018-07-30T11:47:39.092Z,6.83
2018-07-30T11:50:07.192Z,6.60
2018-07-30T11:52:35.480Z,6.50
2018-07-30T11:55:03.657Z,6.53
2018-07-30T11:57:31.737Z,7.10
2018-07-30T11:59:59.801Z,7.13
2018-07-30T12:02:27.965Z,6.40
2018-07-30T12:04:56.096Z,6.80
2018-07-30T12:07:24.159Z,7.17
2018-07-30T12:09:52.220Z,6.67
2018-07-30T12:12:20.306Z,6.97
2018-07-30T12:14:48.356Z,7.20
2018-07-30T12:17:16.434Z,7.30
2018-07-30T12:19:44.481Z,7.00
2018-07-30T12:22:12.615Z,6.53
2018-07-30T12:24:40.692Z,5.77
2018-07-30T12:27:09.147Z,5.60
2018-07-30T12:29:37.232Z,6.20
2018-07-30T12:32:05.763Z,6.40
2018-07-30T12:34:33.950Z,6.90
2018-07-30T12:37:02.019Z,5.80
2018-07-30T12:39:30.124Z,6.40
2018-07-30T12:41:58.316Z,6.03
2018-07-30T12:44:26.729Z,5.90
2018-07-30T12:46:55.144Z,6.30
2018-07-30T12:49:23.253Z,6.70
2018-07-30T12:51:51.334Z,6.80
2018-07-30T12:54:19.413Z,5.60
2018-07-30T12:56:47.599Z,6.87
2018-07-30T12:59:16.213Z,8.13
2018-07-30T13:01:44.301Z,7.17
2018-07-30T13:04:12.414Z,6.37
2018-07-30T13:06:40.808Z,6.60
2018-07-30T13:09:08.964Z,5.40
2018-07-30T13:11:37.189Z,5.60
2018-07-30T13:14:05.283Z,6.23
2018-07-30T13:16:33.325Z,5.80
2018-07-30T13:19:01.388Z,5.23
2018-07-30T13:21:29.493Z,5.60
2018-07-30T13:23:57.552Z,5.67
2018-07-30T13:26:25.671Z,6.20
2018-07-30T13:28:53.952Z,6.37
2018-07-30T13:31:22.001Z,5.83
2018-07-30T13:33:50.209Z,6.10
2018-07-30T13:36:19.540Z,5.40
2018-07-30T13:38:48.642Z,5.67
2018-07-30T13:41:17.832Z,5.87
2018-07-30T13:43:46.953Z,5.40
2018-07-30T13:46:15.848Z,5.67
2018-07-30T13:48:44.961Z,5.70
2018-07-30T13:51:13.389Z,5.77
2018-07-30T13:53:41.450Z,5.83
2018-07-30T13:56:09.509Z,5.77
2018-07-30T13:58:37.569Z,5.50
2018-07-30T14:01:05.671Z,5.97
2018-07-30T14:03:33.801Z,6.07
2018-07-30T14:06:01.989Z,5.57
2018-07-30T14:08:30.077Z,5.97
2018-07-30T14:10:58.140Z,6.07
2018-07-30T14:13:26.211Z,5.47
2018-07-30T14:15:54.262Z,5.77
2018-07-30T14:18:22.359Z,6.20
2018-07-30T14:20:50.489Z,5.47
2018-07-30T14:23:18.580Z,5.77
2018-07-30T14:25:46.753Z,5.20
2018-07-30T14:28:14.910Z,5.63
2018-07-30T14:30:43.177Z,5.87
2018-07-30T14:33:11.248Z,5.90
2018-07-30T14:35:39.348Z,6.53
2018-07-30T14:38:07.593Z,5.57
2018-07-30T14:40:35.648Z,5.90
2018-07-30T14:43:03.702Z,6.00
2018-07-30T14:45:31.832Z,5.10
2018-07-30T14:47:59.916Z,5.83
2018-07-30T14:50:27.972Z,5.87
2018-07-30T14:52:56.072Z,6.00
2018-07-30T14:55:24.153Z,5.60
2018-07-30T14:57:52.238Z,8.53
2018-07-30T15:00:20.711Z,6.60
2018-07-30T15:02:48.770Z,5.53
2018-07-30T15:05:20.737Z,6.23
2018-07-30T15:07:49.720Z,5.80
2018-07-30T15:10:18.162Z,5.93
2018-07-30T15:12:46.420Z,5.23
2018-07-30T15:15:14.489Z,5.10
2018-07-30T15:17:42.567Z,5.57
2018-07-30T15:20:10.649Z,5.87
2018-07-30T15:22:39.032Z,5.60
2018-07-30T15:25:07.158Z,5.57
2018-07-30T15:27:35.594Z,5.20
2018-07-30T15:30:04.523Z,5.30
2018-07-30T15:32:32.954Z,6.03
2018-07-30T15:35:01.161Z,5.80
2018-07-30T15:37:29.447Z,5.10
2018-07-30T15:39:57.576Z,5.10
2018-07-30T15:42:25.665Z,5.67
2018-07-30T15:44:53.725Z,5.70
2018-07-30T15:47:21.808Z,4.90
2018-07-30T15:49:49.928Z,5.83
2018-07-30T15:52:18.053Z,6.20
2018-07-30T15:54:46.118Z,5.80
2018-07-30T15:57:14.397Z,5.40
2018-07-30T15:59:42.460Z,5.43
2018-07-30T16:02:10.705Z,5.70
2018-07-30T16:04:38.866Z,5.70
2018-07-30T16:07:06.977Z,5.43
2018-07-30T16:09:35.064Z,5.60
2018-07-30T16:12:03.175Z,5.70
2018-07-30T16:14:31.420Z,5.13
2018-07-30T16:16:59.493Z,5.30
2018-07-30T16:19:27.665Z,5.10
2018-07-30T16:21:56.104Z,5.60
2018-07-30T16:24:24.190Z,10.27
2018-07-30T16:26:52.236Z,5.60
2018-07-30T16:29:20.321Z,4.63
2018-07-30T16:31:48.379Z,5.57
2018-07-30T16:34:16.660Z,5.43
2018-07-30T16:36:44.873Z,5.87
2018-07-30T16:39:13.308Z,5.53
2018-07-30T16:41:41.690Z,5.33
2018-07-30T16:44:09.959Z,5.80
2018-07-30T16:46:38.027Z,7.13
2018-07-30T16:49:06.221Z,5.60
2018-07-30T16:54:07.947Z,6.37
2018-07-30T16:56:36.025Z,5.40
2018-07-30T16:59:04.965Z,5.70
2018-07-30T17:01:33.088Z,6.40
2018-07-30T17:04:01.169Z,5.97
2018-07-30T17:06:29.256Z,6.23
2018-07-30T17:08:57.326Z,6.10
2018-07-30T17:11:25.391Z,6.57
2018-07-30T17:13:53.460Z,5.80
2018-07-30T17:16:21.910Z,6.03
2018-07-30T17:18:49.976Z,6.10
2018-07-30T17:21:18.064Z,6.17
2018-07-30T17:23:46.152Z,6.90
2018-07-30T17:26:14.875Z,5.90
2018-07-30T17:28:42.963Z,6.27
2018-07-30T17:31:11.156Z,5.63
2018-07-30T17:33:39.409Z,5.93
2018-07-30T17:36:07.465Z,6.00
2018-07-30T17:38:35.899Z,6.10
2018-07-30T17:41:04.060Z,5.60
2018-07-30T17:43:32.457Z,6.17
2018-07-30T17:46:00.600Z,6.33
2018-07-30T17:48:28.984Z,6.07
2018-07-30T17:50:57.167Z,6.53
2018-07-30T17:53:25.293Z,7.70
2018-07-30T17:55:54.012Z,6.63
2018-07-30T17:58:22.125Z,7.63
2018-07-30T18:00:50.289Z,6.30
2018-07-30T18:03:18.470Z,8.03
2018-07-30T18:05:46.553Z,8.07
2018-07-30T18:08:14.638Z,6.90
2018-07-30T18:10:42.738Z,6.93
2018-07-30T18:13:10.826Z,6.40
2018-07-30T18:15:38.926Z,7.07
2018-07-30T18:18:07.054Z,6.80
2018-07-30T18:20:35.149Z,6.70
2018-07-30T18:23:03.222Z,7.00
2018-07-30T18:25:31.324Z,7.07
2018-07-30T18:27:59.402Z,6.87
2018-07-30T18:30:27.696Z,6.50
2018-07-30T18:32:55.803Z,7.37
2018-07-30T18:35:24.857Z,7.80
2018-07-30T18:37:52.989Z,7.13
2018-07-30T18:40:21.111Z,8.03
2018-07-30T18:42:49.354Z,6.47
2018-07-30T18:45:17.452Z,6.70
2018-07-30T18:47:45.516Z,6.70
2018-07-30T18:50:13.735Z,6.00
2018-07-30T18:52:41.887Z,6.53
2018-07-30T18:55:09.980Z,7.40
2018-07-30T18:57:38.193Z,5.67
2018-07-30T19:00:06.439Z,6.07
2018-07-30T19:02:34.845Z,6.13
2018-07-30T19:05:03.146Z,6.40
2018-07-30T19:07:31.312Z,6.20
2018-07-30T19:09:59.491Z,5.70
2018-07-30T19:12:27.972Z,6.30
2018-07-30T19:14:56.129Z,6.00
2018-07-30T19:17:24.297Z,6.90
2018-07-30T19:19:52.359Z,6.57
2018-07-30T19:22:20.510Z,6.10
2018-07-30T19:24:48.851Z,6.00
2018-07-30T19:27:17.104Z,7.03
2018-07-30T19:29:45.577Z,6.73
2018-07-30T19:32:13.756Z,6.83
2018-07-30T19:34:41.847Z,6.43
2018-07-30T19:37:10.420Z,6.13
2018-07-30T19:39:38.648Z,6.53
2018-07-30T19:42:07.373Z,6.60
2018-07-30T19:44:36.036Z,6.43
2018-07-30T19:47:04.328Z,5.90
2018-07-30T19:49:32.599Z,6.47
2018-07-30T19:52:01.305Z,6.77
2018-07-30T19:54:29.887Z,7.00
2018-07-30T19:56:58.354Z,7.10
2018-07-30T19:59:26.432Z,7.20
2018-07-30T20:01:55.122Z,6.67
2018-07-30T20:04:23.261Z,6.93
2018-07-30T20:06:51.785Z,6.30
2018-07-30T20:09:19.934Z,10.83
2018-07-30T20:11:48.041Z,7.43
2018-07-30T20:14:16.628Z,6.50
2018-07-30T20:16:45.205Z,6.60
2018-07-30T20:19:13.893Z,6.70
2018-07-30T20:21:42.564Z,6.57
2018-07-30T20:24:11.061Z,6.17
2018-07-30T20:26:39.224Z,6.63
2018-07-30T20:29:07.719Z,6.93
2018-07-30T20:31:36.305Z,6.33
2018-07-30T20:34:04.562Z,7.43
2018-07-30T20:36:33.044Z,7.40
2018-07-30T20:39:01.153Z,7.57
2018-07-30T20:41:29.272Z,8.80
2018-07-30T20:43:57.447Z,6.53
2018-07-30T20:46:25.781Z,7.07
2018-07-30T20:48:53.884Z,7.50
2018-07-30T20:51:22.013Z,8.63
2018-07-30T20:53:50.157Z,6.80
2018-07-30T20:56:18.377Z,6.00
2018-07-30T20:58:46.545Z,5.93
2018-07-30T21:01:14.648Z,6.60
2018-07-30T21:03:42.732Z,6.10
2018-07-30T21:06:10.840Z,6.60
2018-07-30T21:08:38.955Z,10.57
2018-07-30T21:11:07.387Z,6.30
2018-07-30T21:13:35.503Z,6.80
2018-07-30T21:16:03.597Z,6.97
2018-07-30T21:18:31.686Z,9.27
2018-07-30T21:20:59.772Z,6.40
2018-07-30T21:23:27.896Z,6.57
2018-07-30T21:25:56.128Z,6.73
2018-07-30T21:28:24.205Z,7.03
2018-07-30T21:30:53.141Z,7.73
2018-07-30T21:33:21.217Z,7.30
2018-07-30T21:35:49.292Z,6.67
2018-07-30T21:38:17.735Z,7.43
2018-07-30T21:40:46.187Z,6.90
2018-07-30T21:43:14.262Z,7.30
2018-07-30T21:45:42.354Z,7.67
2018-07-30T21:48:10.425Z,7.23
2018-07-30T21:50:38.548Z,7.33
2018-07-30T21:53:07.165Z,7.50
2018-07-30T21:55:35.300Z,7.27
2018-07-30T21:58:03.402Z,6.57
2018-07-30T22:00:31.500Z,7.50
2018-07-30T22:02:59.577Z,7.20
2018-07-30T22:05:27.636Z,7.63
2018-07-30T22:07:55.724Z,7.40
2018-07-30T22:10:24.786Z,8.13
2018-07-30T22:12:53.309Z,8.10
2018-07-30T22:15:21.747Z,8.00
2018-07-30T22:17:50.012Z,7.57
2018-07-30T22:20:18.151Z,7.67
2018-07-30T22:22:46.208Z,7.43
2018-07-30T22:25:14.360Z,9.70
2018-07-30T22:27:42.804Z,7.37
2018-07-30T22:30:11.129Z,6.97
2018-07-30T22:32:39.185Z,6.63
2018-07-30T22:35:07.664Z,8.10
2018-07-30T22:37:35.768Z,7.10
2018-07-30T22:40:04.402Z,7.40
2018-07-30T22:42:32.484Z,7.10
2018-07-30T22:45:00.580Z,7.00
2018-07-30T22:47:28.643Z,7.00
2018-07-30T22:49:56.747Z,11.40
2018-07-30T22:52:25.152Z,6.60
2018-07-30T22:54:53.243Z,7.40
2018-07-30T22:57:21.329Z,6.80
2018-07-30T22:59:49.412Z,6.90
2018-07-30T23:02:17.530Z,7.43
2018-07-30T23:04:45.656Z,7.87
2018-07-30T23:07:13.760Z,7.13
2018-07-30T23:09:41.845Z,7.60
2018-07-30T23:12:09.903Z,7.60
2018-07-30T23:14:37.975Z,7.57
2018-07-30T23:17:06.409Z,7.37
2018-07-30T23:19:34.470Z,6.97
2018-07-30T23:22:02.565Z,9.70
2018-07-30T23:24:31.017Z,6.83
2018-07-30T23:26:59.097Z,7.23
2018-07-30T23:29:27.180Z,7.70
2018-07-30T23:31:55.292Z,6.67
2018-07-30T23:34:23.353Z,6.73
2018-07-30T23:36:51.494Z,7.37
2018-07-30T23:39:19.741Z,7.23
2018-07-30T23:41:47.772Z,8.20
2018-07-30T23:44:15.861Z,7.30
2018-07-30T23:46:44.093Z,7.20
2018-07-30T23:49:12.200Z,6.97
2018-07-30T23:51:40.260Z,7.13
2018-07-30T23:54:08.685Z,7.27
2018-07-30T23:56:36.761Z,7.80
2018-07-30T23:59:04.821Z,9.40
